sensor_id;sensor_type;location;lat;lon;timestamp;pressure;altitude;pressure_sealevel;temperature;humidity
26487;BME280;14425;56.136;40.360;2023-04-05T00:00:54;99719.25;;;6.66;100.00
26487;BME280;14425;56.136;40.360;2023-04-05T00:03:19;99725.34;;;6.69;100.00
26487;BME280;14425;56.136;40.360;2023-04-05T00:05:45;99722.41;;;6.61;100.00
26487;BME280;14425;56.136;40.360;2023-04-05T00:08:14;99726.16;;;6.68;100.00
26487;BME280;14425;56.136;40.360;2023-04-05T00:10:48;99720.06;;;6.65;100.00
26487;BME280;14425;56.136;40.360;2023-04-05T00:13:14;99723.44;;;6.64;100.00
26487;BME280;14425;56.136;40.360;2023-04-05T00:15:40;99717.41;;;6.64;100.00
26487;BME280;14425;56.136;40.360;2023-04-05T00:18:05;99714.06;;;6.65;100.00
26487;BME280;14425;56.136;40.360;2023-04-05T00:20:31;99723.19;;;6.60;100.00
26487;BME280;14425;56.136;40.360;2023-04-05T00:22:58;99727.25;;;6.40;100.00
26487;BME280;14425;56.136;40.360;2023-04-05T00:25:24;99721.66;;;6.47;100.00
26487;BME280;14425;56.136;40.360;2023-04-05T00:27:49;99727.25;;;6.40;100.00
26487;BME280;14425;56.136;40.360;2023-04-05T00:30:16;99734.34;;;6.29;100.00
26487;BME280;14425;56.136;40.360;2023-04-05T00:32:48;99736.75;;;6.09;100.00
26487;BME280;14425;56.136;40.360;2023-04-05T00:35:15;99734.34;;;6.13;100.00
26487;BME280;14425;56.136;40.360;2023-04-05T00:37:40;99725.94;;;6.15;100.00
26487;BME280;14425;56.136;40.360;2023-04-05T00:40:06;99732.41;;;5.93;100.00
26487;BME280;14425;56.136;40.360;2023-04-05T00:42:32;99729.41;;;6.01;100.00
26487;BME280;14425;56.136;40.360;2023-04-05T00:44:57;99731.84;;;6.14;100.00
26487;BME280;14425;56.136;40.360;2023-04-05T00:47:23;99734.81;;;5.90;100.00
26487;BME280;14425;56.136;40.360;2023-04-05T00:49:49;99734.63;;;5.87;100.00
26487;BME280;14425;56.136;40.360;2023-04-05T00:52:14;99742.47;;;6.05;100.00
26487;BME280;14425;56.136;40.360;2023-04-05T00:54:40;99739.22;;;5.93;100.00
26487;BME280;14425;56.136;40.360;2023-04-05T00:57:07;99742.13;;;5.84;100.00
26487;BME280;14425;56.136;40.360;2023-04-05T00:59:34;99742.41;;;5.89;100.00
26487;BME280;14425;56.136;40.360;2023-04-05T01:03:08;99756.00;;;5.88;100.00
26487;BME280;14425;56.136;40.360;2023-04-05T01:05:14;99742.47;;;5.90;100.00
26487;BME280;14425;56.136;40.360;2023-04-05T01:07:45;99738.78;;;5.85;100.00
26487;BME280;14425;56.136;40.360;2023-04-05T01:10:16;99748.34;;;5.73;100.00
26487;BME280;14425;56.136;40.360;2023-04-05T01:12:42;99746.38;;;5.99;100.00
26487;BME280;14425;56.136;40.360;2023-04-05T01:15:08;99758.56;;;5.88;100.00
26487;BME280;14425;56.136;40.360;2023-04-05T01:17:35;99748.88;;;5.67;100.00
26487;BME280;14425;56.136;40.360;2023-04-05T01:20:07;99762.81;;;5.58;100.00
26487;BME280;14425;56.136;40.360;2023-04-05T01:28:29;99756.81;;;5.42;100.00
26487;BME280;14425;56.136;40.360;2023-04-05T01:33:57;99762.81;;;5.43;100.00
26487;BME280;14425;56.136;40.360;2023-04-05T01:36:36;99754.72;;;5.35;100.00
26487;BME280;14425;56.136;40.360;2023-04-05T01:39:04;99757.47;;;5.38;100.00
26487;BME280;14425;56.136;40.360;2023-04-05T01:41:30;99762.72;;;5.41;100.00
26487;BME280;14425;56.136;40.360;2023-04-05T01:43:56;99762.81;;;5.28;100.00
26487;BME280;14425;56.136;40.360;2023-04-05T01:46:21;99766.78;;;5.23;100.00
26487;BME280;14425;56.136;40.360;2023-04-05T01:48:47;99766.47;;;5.31;100.00
26487;BME280;14425;56.136;40.360;2023-04-05T01:51:12;99765.81;;;5.21;100.00
26487;BME280;14425;56.136;40.360;2023-04-05T01:53:38;99764.91;;;5.05;100.00
26487;BME280;14425;56.136;40.360;2023-04-05T01:56:03;99760.94;;;4.95;100.00
26487;BME280;14425;56.136;40.360;2023-04-05T01:58:29;99761.03;;;4.97;100.00
26487;BME280;14425;56.136;40.360;2023-04-05T02:00:55;99764.50;;;4.84;100.00
26487;BME280;14425;56.136;40.360;2023-04-05T02:03:22;99768.63;;;4.67;100.00
26487;BME280;14425;56.136;40.360;2023-04-05T02:05:47;99760.91;;;4.80;100.00
26487;BME280;14425;56.136;40.360;2023-04-05T02:08:12;99764.41;;;4.82;100.00
26487;BME280;14425;56.136;40.360;2023-04-05T02:10:39;99757.28;;;4.77;100.00
26487;BME280;14425;56.136;40.360;2023-04-05T02:13:05;99766.44;;;4.73;100.00
26487;BME280;14425;56.136;40.360;2023-04-05T02:15:30;99766.44;;;4.73;100.00
26487;BME280;14425;56.136;40.360;2023-04-05T02:17:58;99781.78;;;4.73;100.00
26487;BME280;14425;56.136;40.360;2023-04-05T02:20:27;99778.75;;;4.66;100.00
26487;BME280;14425;56.136;40.360;2023-04-05T02:22:53;99779.59;;;4.66;100.00
26487;BME280;14425;56.136;40.360;2023-04-05T02:25:19;99781.81;;;4.60;100.00
26487;BME280;14425;56.136;40.360;2023-04-05T02:27:45;99785.09;;;4.72;100.00
26487;BME280;14425;56.136;40.360;2023-04-05T02:30:11;99787.88;;;4.62;100.00
26487;BME280;14425;56.136;40.360;2023-04-05T02:32:39;99800.47;;;4.59;100.00
26487;BME280;14425;56.136;40.360;2023-04-05T02:35:07;99799.31;;;4.54;100.00
26487;BME280;14425;56.136;40.360;2023-04-05T02:37:33;99793.38;;;4.55;100.00
26487;BME280;14425;56.136;40.360;2023-04-05T02:39:58;99799.84;;;4.63;100.00
26487;BME280;14425;56.136;40.360;2023-04-05T02:42:24;99796.09;;;4.71;100.00
26487;BME280;14425;56.136;40.360;2023-04-05T02:44:51;99795.06;;;4.54;100.00
26487;BME280;14425;56.136;40.360;2023-04-05T02:47:16;99804.41;;;4.54;100.00
26487;BME280;14425;56.136;40.360;2023-04-05T02:49:46;99799.69;;;4.60;100.00
26487;BME280;14425;56.136;40.360;2023-04-05T02:52:13;99798.78;;;4.59;100.00
26487;BME280;14425;56.136;40.360;2023-04-05T02:54:38;99801.25;;;4.58;100.00
26487;BME280;14425;56.136;40.360;2023-04-05T02:57:04;99809.34;;;4.51;100.00
26487;BME280;14425;56.136;40.360;2023-04-05T02:59:30;99813.38;;;4.47;100.00
26487;BME280;14425;56.136;40.360;2023-04-05T03:01:55;99818.41;;;4.32;100.00
26487;BME280;14425;56.136;40.360;2023-04-05T03:04:20;99821.53;;;4.28;100.00
26487;BME280;14425;56.136;40.360;2023-04-05T03:06:46;99825.66;;;4.26;100.00
26487;BME280;14425;56.136;40.360;2023-04-05T03:09:15;99821.28;;;4.23;100.00
26487;BME280;14425;56.136;40.360;2023-04-05T03:11:40;99822.72;;;4.20;100.00
26487;BME280;14425;56.136;40.360;2023-04-05T03:14:06;99823.09;;;4.39;100.00
26487;BME280;14425;56.136;40.360;2023-04-05T03:16:31;99826.47;;;4.25;100.00
26487;BME280;14425;56.136;40.360;2023-04-05T03:18:57;99832.13;;;4.34;100.00
26487;BME280;14425;56.136;40.360;2023-04-05T03:21:22;99824.91;;;4.27;100.00
26487;BME280;14425;56.136;40.360;2023-04-05T03:23:48;99833.13;;;4.23;100.00
26487;BME280;14425;56.136;40.360;2023-04-05T03:26:14;99824.50;;;4.21;100.00
26487;BME280;14425;56.136;40.360;2023-04-05T03:28:40;99829.50;;;4.06;100.00
26487;BME280;14425;56.136;40.360;2023-04-05T03:31:12;99835.19;;;4.42;100.00
26487;BME280;14425;56.136;40.360;2023-04-05T03:33:37;99828.72;;;4.20;100.00
26487;BME280;14425;56.136;40.360;2023-04-05T03:36:04;99830.22;;;4.17;100.00
26487;BME280;14425;56.136;40.360;2023-04-05T03:38:29;99838.44;;;4.13;100.00
26487;BME280;14425;56.136;40.360;2023-04-05T03:40:57;99837.47;;;4.11;100.00
26487;BME280;14425;56.136;40.360;2023-04-05T03:43:22;99833.84;;;4.20;100.00
26487;BME280;14425;56.136;40.360;2023-04-05T03:45:48;99836.06;;;4.29;100.00
26487;BME280;14425;56.136;40.360;2023-04-05T03:48:13;99839.59;;;4.31;100.00
26487;BME280;14425;56.136;40.360;2023-04-05T03:50:44;99835.88;;;4.39;100.00
26487;BME280;14425;56.136;40.360;2023-04-05T03:53:10;99841.06;;;4.41;100.00
26487;BME280;14425;56.136;40.360;2023-04-05T03:55:35;99838.94;;;4.34;100.00
26487;BME280;14425;56.136;40.360;2023-04-05T03:58:01;99849.81;;;4.31;100.00
26487;BME280;14425;56.136;40.360;2023-04-05T04:00:26;99842.94;;;4.43;100.00
26487;BME280;14425;56.136;40.360;2023-04-05T04:02:52;99843.22;;;4.48;100.00
26487;BME280;14425;56.136;40.360;2023-04-05T04:05:18;99842.13;;;4.58;100.00
26487;BME280;14425;56.136;40.360;2023-04-05T04:07:45;99844.56;;;4.56;100.00
26487;BME280;14425;56.136;40.360;2023-04-05T04:10:14;99845.94;;;4.65;100.00
26487;BME280;14425;56.136;40.360;2023-04-05T04:12:42;99836.69;;;5.81;100.00
26487;BME280;14425;56.136;40.360;2023-04-05T04:15:07;99846.22;;;6.45;100.00
26487;BME280;14425;56.136;40.360;2023-04-05T04:17:35;99845.72;;;6.36;100.00
26487;BME280;14425;56.136;40.360;2023-04-05T04:20:01;99844.56;;;7.10;97.85
26487;BME280;14425;56.136;40.360;2023-04-05T04:22:31;99849.03;;;7.30;91.34
26487;BME280;14425;56.136;40.360;2023-04-05T04:24:58;99856.34;;;7.22;91.41
26487;BME280;14425;56.136;40.360;2023-04-05T04:27:29;99857.22;;;7.07;92.45
26487;BME280;14425;56.136;40.360;2023-04-05T04:29:55;99856.34;;;7.06;92.11
26487;BME280;14425;56.136;40.360;2023-04-05T04:32:27;99858.66;;;7.34;88.80
26487;BME280;14425;56.136;40.360;2023-04-05T04:35:13;99855.94;;;7.31;88.85
26487;BME280;14425;56.136;40.360;2023-04-05T04:37:52;99864.66;;;7.18;90.70
26487;BME280;14425;56.136;40.360;2023-04-05T04:40:19;99869.16;;;7.39;88.73
26487;BME280;14425;56.136;40.360;2023-04-05T04:42:45;99881.63;;;6.52;93.67
26487;BME280;14425;56.136;40.360;2023-04-05T04:45:15;99875.41;;;5.87;99.48
26487;BME280;14425;56.136;40.360;2023-04-05T04:47:45;99877.72;;;5.68;100.00
26487;BME280;14425;56.136;40.360;2023-04-05T04:50:12;99873.28;;;5.65;100.00
26487;BME280;14425;56.136;40.360;2023-04-05T04:52:39;99879.28;;;5.66;100.00
26487;BME280;14425;56.136;40.360;2023-04-05T04:55:07;99889.78;;;5.55;100.00
26487;BME280;14425;56.136;40.360;2023-04-05T04:57:32;99879.34;;;7.37;100.00
26487;BME280;14425;56.136;40.360;2023-04-05T04:59:58;99878.44;;;7.53;90.13
26487;BME280;14425;56.136;40.360;2023-04-05T05:02:25;99884.09;;;6.82;94.53
26487;BME280;14425;56.136;40.360;2023-04-05T05:04:51;99887.44;;;6.18;99.74
26487;BME280;14425;56.136;40.360;2023-04-05T05:07:17;99886.38;;;6.29;100.00
26487;BME280;14425;56.136;40.360;2023-04-05T05:09:43;99895.53;;;6.56;100.00
26487;BME280;14425;56.136;40.360;2023-04-05T05:12:09;99889.38;;;6.69;99.39
26487;BME280;14425;56.136;40.360;2023-04-05T05:14:34;99894.13;;;6.46;99.41
26487;BME280;14425;56.136;40.360;2023-04-05T05:17:00;99886.59;;;6.49;100.00
26487;BME280;14425;56.136;40.360;2023-04-05T05:19:25;99892.41;;;6.61;100.00
26487;BME280;14425;56.136;40.360;2023-04-05T05:21:51;99891.09;;;6.53;100.00
26487;BME280;14425;56.136;40.360;2023-04-05T05:24:18;99893.13;;;6.44;100.00
26487;BME280;14425;56.136;40.360;2023-04-05T05:26:44;99891.88;;;6.83;100.00
26487;BME280;14425;56.136;40.360;2023-04-05T05:29:09;99901.56;;;7.04;97.64
26487;BME280;14425;56.136;40.360;2023-04-05T05:31:35;99906.44;;;7.16;97.41
26487;BME280;14425;56.136;40.360;2023-04-05T05:34:01;99898.72;;;7.65;93.10
26487;BME280;14425;56.136;40.360;2023-04-05T05:36:26;99904.06;;;7.86;88.30
26487;BME280;14425;56.136;40.360;2023-04-05T05:38:52;99905.91;;;7.89;87.77
26487;BME280;14425;56.136;40.360;2023-04-05T05:41:20;99901.03;;;8.11;87.04
26487;BME280;14425;56.136;40.360;2023-04-05T05:43:46;99907.34;;;8.36;86.06
26487;BME280;14425;56.136;40.360;2023-04-05T05:46:12;99906.06;;;8.44;85.14
26487;BME280;14425;56.136;40.360;2023-04-05T05:48:37;99903.50;;;8.62;83.41
26487;BME280;14425;56.136;40.360;2023-04-05T05:51:03;99903.19;;;8.74;82.60
26487;BME280;14425;56.136;40.360;2023-04-05T05:53:38;99901.25;;;9.25;80.10
26487;BME280;14425;56.136;40.360;2023-04-05T05:56:04;99903.41;;;9.36;78.98
26487;BME280;14425;56.136;40.360;2023-04-05T05:58:31;99904.97;;;9.52;76.96
26487;BME280;14425;56.136;40.360;2023-04-05T06:00:56;99900.75;;;9.34;78.98
26487;BME280;14425;56.136;40.360;2023-04-05T06:03:24;99901.34;;;9.68;77.26
26487;BME280;14425;56.136;40.360;2023-04-05T06:05:57;99908.06;;;9.64;76.68
26487;BME280;14425;56.136;40.360;2023-04-05T06:08:24;99903.88;;;10.07;74.46
26487;BME280;14425;56.136;40.360;2023-04-05T06:10:52;99907.31;;;10.28;73.51
26487;BME280;14425;56.136;40.360;2023-04-05T06:13:18;99910.13;;;10.33;72.79
26487;BME280;14425;56.136;40.360;2023-04-05T06:15:44;99915.28;;;10.33;73.47
26487;BME280;14425;56.136;40.360;2023-04-05T06:18:09;99915.19;;;10.31;71.59
26487;BME280;14425;56.136;40.360;2023-04-05T06:20:35;99912.38;;;10.69;71.57
26487;BME280;14425;56.136;40.360;2023-04-05T06:23:05;99920.00;;;11.58;66.76
26487;BME280;14425;56.136;40.360;2023-04-05T06:25:31;99914.88;;;12.35;62.77
26487;BME280;14425;56.136;40.360;2023-04-05T06:27:56;99922.41;;;12.27;63.30
26487;BME280;14425;56.136;40.360;2023-04-05T06:30:22;99925.91;;;12.56;61.82
26487;BME280;14425;56.136;40.360;2023-04-05T06:32:47;99928.56;;;12.58;60.68
26487;BME280;14425;56.136;40.360;2023-04-05T06:35:19;99935.78;;;12.41;59.70
26487;BME280;14425;56.136;40.360;2023-04-05T06:37:44;99936.97;;;12.51;60.90
26487;BME280;14425;56.136;40.360;2023-04-05T06:40:10;99941.78;;;12.67;58.75
26487;BME280;14425;56.136;40.360;2023-04-05T06:42:36;99943.22;;;12.57;60.19
26487;BME280;14425;56.136;40.360;2023-04-05T06:45:01;99939.44;;;12.20;60.34
26487;BME280;14425;56.136;40.360;2023-04-05T06:47:37;99941.00;;;12.70;59.16
26487;BME280;14425;56.136;40.360;2023-04-05T06:50:05;99942.06;;;13.33;56.98
26487;BME280;14425;56.136;40.360;2023-04-05T06:52:31;99937.13;;;13.72;55.79
26487;BME280;14425;56.136;40.360;2023-04-05T06:54:57;99934.91;;;13.86;55.16
26487;BME280;14425;56.136;40.360;2023-04-05T06:57:22;99947.16;;;13.60;54.78
26487;BME280;14425;56.136;40.360;2023-04-05T06:59:50;99934.94;;;14.56;52.76
26487;BME280;14425;56.136;40.360;2023-04-05T07:02:15;99940.59;;;14.74;51.56
26487;BME280;14425;56.136;40.360;2023-04-05T07:04:41;99936.16;;;15.08;51.10
26487;BME280;14425;56.136;40.360;2023-04-05T07:07:06;99933.91;;;14.86;51.24
26487;BME280;14425;56.136;40.360;2023-04-05T07:09:32;99937.50;;;14.91;51.00
26487;BME280;14425;56.136;40.360;2023-04-05T07:12:02;99934.25;;;15.41;50.31
26487;BME280;14425;56.136;40.360;2023-04-05T07:14:33;99940.91;;;15.72;50.41
26487;BME280;14425;56.136;40.360;2023-04-05T07:16:59;99945.44;;;15.38;49.73
26487;BME280;14425;56.136;40.360;2023-04-05T07:19:25;99940.25;;;15.38;50.59
26487;BME280;14425;56.136;40.360;2023-04-05T07:21:54;99942.41;;;16.05;49.25
26487;BME280;14425;56.136;40.360;2023-04-05T07:24:19;99941.09;;;16.29;47.80
26487;BME280;14425;56.136;40.360;2023-04-05T07:26:45;99937.25;;;15.61;47.96
26487;BME280;14425;56.136;40.360;2023-04-05T07:29:11;99941.75;;;15.71;48.42
26487;BME280;14425;56.136;40.360;2023-04-05T07:31:38;99943.94;;;16.97;47.36
26487;BME280;14425;56.136;40.360;2023-04-05T07:34:04;99942.41;;;16.55;46.60
26487;BME280;14425;56.136;40.360;2023-04-05T07:36:29;99943.75;;;16.33;47.69
26487;BME280;14425;56.136;40.360;2023-04-05T07:38:58;99947.75;;;16.65;47.05
26487;BME280;14425;56.136;40.360;2023-04-05T07:41:24;99942.44;;;16.57;47.14
26487;BME280;14425;56.136;40.360;2023-04-05T07:43:50;99948.19;;;16.91;46.97
26487;BME280;14425;56.136;40.360;2023-04-05T07:46:16;99942.13;;;16.92;46.05
26487;BME280;14425;56.136;40.360;2023-04-05T07:48:42;99951.88;;;17.07;45.14
26487;BME280;14425;56.136;40.360;2023-04-05T07:51:08;99951.25;;;17.26;45.01
26487;BME280;14425;56.136;40.360;2023-04-05T07:53:35;99937.69;;;17.52;45.89
26487;BME280;14425;56.136;40.360;2023-04-05T07:56:09;99952.66;;;16.46;47.45
26487;BME280;14425;56.136;40.360;2023-04-05T07:58:35;99948.66;;;17.26;45.18
26487;BME280;14425;56.136;40.360;2023-04-05T08:01:04;99947.84;;;17.30;45.48
26487;BME280;14425;56.136;40.360;2023-04-05T08:03:30;99948.38;;;17.75;44.34
26487;BME280;14425;56.136;40.360;2023-04-05T08:05:57;99944.13;;;17.85;44.81
26487;BME280;14425;56.136;40.360;2023-04-05T08:08:25;99940.91;;;18.07;43.38
26487;BME280;14425;56.136;40.360;2023-04-05T08:10:51;99941.53;;;17.85;44.64
26487;BME280;14425;56.136;40.360;2023-04-05T08:13:17;99947.09;;;17.41;45.22
26487;BME280;14425;56.136;40.360;2023-04-05T08:15:42;99945.81;;;17.80;45.33
26487;BME280;14425;56.136;40.360;2023-04-05T08:18:08;99946.44;;;17.57;44.60
26487;BME280;14425;56.136;40.360;2023-04-05T08:20:33;99955.66;;;17.29;45.86
26487;BME280;14425;56.136;40.360;2023-04-05T08:23:06;99968.94;;;16.34;46.33
26487;BME280;14425;56.136;40.360;2023-04-05T08:25:32;99964.03;;;16.51;46.61
26487;BME280;14425;56.136;40.360;2023-04-05T08:27:57;99952.97;;;17.24;46.84
26487;BME280;14425;56.136;40.360;2023-04-05T08:30:23;99942.72;;;18.13;45.50
26487;BME280;14425;56.136;40.360;2023-04-05T08:32:48;99946.09;;;18.04;45.90
26487;BME280;14425;56.136;40.360;2023-04-05T08:35:14;99949.09;;;18.44;44.32
26487;BME280;14425;56.136;40.360;2023-04-05T08:37:40;99955.97;;;18.36;43.38
26487;BME280;14425;56.136;40.360;2023-04-05T08:40:06;99942.72;;;18.18;43.86
26487;BME280;14425;56.136;40.360;2023-04-05T08:43:02;99945.69;;;17.67;44.66
26487;BME280;14425;56.136;40.360;2023-04-05T08:45:23;99941.72;;;18.02;44.23
26487;BME280;14425;56.136;40.360;2023-04-05T08:47:51;99948.19;;;18.44;44.22
26487;BME280;14425;56.136;40.360;2023-04-05T08:50:18;99943.28;;;18.86;42.50
26487;BME280;14425;56.136;40.360;2023-04-05T08:52:45;99953.69;;;18.78;42.62
26487;BME280;14425;56.136;40.360;2023-04-05T08:55:15;99947.41;;;17.67;44.27
26487;BME280;14425;56.136;40.360;2023-04-05T08:57:43;99947.69;;;17.90;44.10
26487;BME280;14425;56.136;40.360;2023-04-05T09:00:13;99952.00;;;17.86;44.86
26487;BME280;14425;56.136;40.360;2023-04-05T09:02:42;99945.13;;;17.91;43.67
26487;BME280;14425;56.136;40.360;2023-04-05T09:05:09;99950.38;;;17.99;44.35
26487;BME280;14425;56.136;40.360;2023-04-05T09:07:36;99952.41;;;18.28;44.70
26487;BME280;14425;56.136;40.360;2023-04-05T09:10:04;99949.13;;;18.54;43.56
26487;BME280;14425;56.136;40.360;2023-04-05T09:12:31;99943.72;;;18.31;43.74
26487;BME280;14425;56.136;40.360;2023-04-05T09:14:59;99951.22;;;17.95;43.52
26487;BME280;14425;56.136;40.360;2023-04-05T09:17:27;99950.75;;;18.35;44.05
26487;BME280;14425;56.136;40.360;2023-04-05T09:19:53;99943.78;;;18.37;44.60
26487;BME280;14425;56.136;40.360;2023-04-05T09:22:21;99942.53;;;19.05;42.14
26487;BME280;14425;56.136;40.360;2023-04-05T09:24:47;99950.03;;;18.53;43.60
26487;BME280;14425;56.136;40.360;2023-04-05T09:27:15;99950.34;;;18.96;42.62
26487;BME280;14425;56.136;40.360;2023-04-05T09:29:45;99950.56;;;19.37;42.19
26487;BME280;14425;56.136;40.360;2023-04-05T09:32:13;99950.28;;;18.87;42.32
26487;BME280;14425;56.136;40.360;2023-04-05T09:34:40;99953.88;;;19.01;41.48
26487;BME280;14425;56.136;40.360;2023-04-05T09:37:19;99948.75;;;19.23;42.03
26487;BME280;14425;56.136;40.360;2023-04-05T09:39:46;99945.38;;;19.48;41.28
26487;BME280;14425;56.136;40.360;2023-04-05T09:42:15;99943.53;;;19.23;42.06
26487;BME280;14425;56.136;40.360;2023-04-05T09:47:20;99944.25;;;18.97;42.12
26487;BME280;14425;56.136;40.360;2023-04-05T09:49:46;99942.88;;;18.33;43.35
26487;BME280;14425;56.136;40.360;2023-04-05T09:52:29;99939.06;;;19.11;42.23
26487;BME280;14425;56.136;40.360;2023-04-05T09:54:59;99936.91;;;18.46;42.44
26487;BME280;14425;56.136;40.360;2023-04-05T09:57:26;99931.34;;;19.34;41.90
26487;BME280;14425;56.136;40.360;2023-04-05T09:59:53;99938.41;;;19.56;41.52
26487;BME280;14425;56.136;40.360;2023-04-05T10:02:22;99936.56;;;19.25;40.84
26487;BME280;14425;56.136;40.360;2023-04-05T10:04:48;99938.03;;;18.79;42.75
26487;BME280;14425;56.136;40.360;2023-04-05T10:07:15;99929.53;;;19.20;41.59
26487;BME280;14425;56.136;40.360;2023-04-05T10:09:43;99931.41;;;19.48;41.16
26487;BME280;14425;56.136;40.360;2023-04-05T10:12:11;99933.22;;;19.69;41.23
26487;BME280;14425;56.136;40.360;2023-04-05T10:14:38;99936.66;;;19.54;40.74
26487;BME280;14425;56.136;40.360;2023-04-05T10:17:08;99941.66;;;19.03;42.08
26487;BME280;14425;56.136;40.360;2023-04-05T10:22:14;99939.28;;;19.54;41.79
26487;BME280;14425;56.136;40.360;2023-04-05T10:25:03;99942.22;;;18.59;42.13
26487;BME280;14425;56.136;40.360;2023-04-05T10:27:33;99933.78;;;18.97;41.46
26487;BME280;14425;56.136;40.360;2023-04-05T10:30:07;99939.34;;;19.69;40.90
26487;BME280;14425;56.136;40.360;2023-04-05T10:33:00;99930.50;;;19.36;41.36
26487;BME280;14425;56.136;40.360;2023-04-05T10:35:47;99932.03;;;18.97;41.99
26487;BME280;14425;56.136;40.360;2023-04-05T10:38:24;99932.28;;;19.39;41.89
26487;BME280;14425;56.136;40.360;2023-04-05T10:40:53;99933.53;;;18.60;43.44
26487;BME280;14425;56.136;40.360;2023-04-05T10:43:24;99929.84;;;18.33;43.20
26487;BME280;14425;56.136;40.360;2023-04-05T10:45:52;99939.94;;;17.98;44.04
26487;BME280;14425;56.136;40.360;2023-04-05T10:48:36;99943.72;;;18.29;43.55
26487;BME280;14425;56.136;40.360;2023-04-05T10:51:05;99940.31;;;18.36;44.21
26487;BME280;14425;56.136;40.360;2023-04-05T10:53:30;99935.13;;;18.42;43.24
26487;BME280;14425;56.136;40.360;2023-04-05T10:56:00;99938.00;;;17.81;44.42
26487;BME280;14425;56.136;40.360;2023-04-05T10:58:26;99942.59;;;18.04;43.84
26487;BME280;14425;56.136;40.360;2023-04-05T11:00:53;99945.47;;;18.32;44.09
26487;BME280;14425;56.136;40.360;2023-04-05T11:03:48;99947.16;;;18.25;43.10
26487;BME280;14425;56.136;40.360;2023-04-05T11:08:44;99946.00;;;18.96;42.71
26487;BME280;14425;56.136;40.360;2023-04-05T11:11:13;99940.84;;;19.13;41.85
26487;BME280;14425;56.136;40.360;2023-04-05T11:13:55;99927.84;;;19.23;41.53
26487;BME280;14425;56.136;40.360;2023-04-05T11:16:23;99934.03;;;19.45;41.07
26487;BME280;14425;56.136;40.360;2023-04-05T11:18:50;99934.59;;;18.87;42.43
26487;BME280;14425;56.136;40.360;2023-04-05T11:21:28;99938.25;;;18.04;43.28
26487;BME280;14425;56.136;40.360;2023-04-05T11:24:09;99939.72;;;18.74;43.68
26487;BME280;14425;56.136;40.360;2023-04-05T11:29:08;99932.44;;;19.96;42.12
26487;BME280;14425;56.136;40.360;2023-04-05T11:31:34;99932.47;;;20.59;40.42
26487;BME280;14425;56.136;40.360;2023-04-05T11:34:03;99933.34;;;20.34;40.28
26487;BME280;14425;56.136;40.360;2023-04-05T11:41:46;99919.38;;;20.53;39.16
26487;BME280;14425;56.136;40.360;2023-04-05T11:44:14;99915.84;;;20.94;38.90
26487;BME280;14425;56.136;40.360;2023-04-05T11:46:41;99921.13;;;20.65;38.61
26487;BME280;14425;56.136;40.360;2023-04-05T11:49:07;99922.84;;;20.61;38.80
26487;BME280;14425;56.136;40.360;2023-04-05T11:51:32;99933.16;;;19.50;40.73
26487;BME280;14425;56.136;40.360;2023-04-05T11:53:58;99927.25;;;20.36;39.17
26487;BME280;14425;56.136;40.360;2023-04-05T11:56:23;99919.31;;;21.10;39.49
26487;BME280;14425;56.136;40.360;2023-04-05T11:58:49;99924.59;;;20.05;39.05
26487;BME280;14425;56.136;40.360;2023-04-05T12:01:16;99918.50;;;20.80;38.39
26487;BME280;14425;56.136;40.360;2023-04-05T12:03:41;99923.75;;;20.74;37.92
26487;BME280;14425;56.136;40.360;2023-04-05T12:06:07;99909.69;;;21.03;38.00
26487;BME280;14425;56.136;40.360;2023-04-05T12:08:43;99924.63;;;20.31;38.74
26487;BME280;14425;56.136;40.360;2023-04-05T12:11:15;99915.00;;;20.41;37.75
26487;BME280;14425;56.136;40.360;2023-04-05T12:13:41;99926.34;;;20.02;38.36
26487;BME280;14425;56.136;40.360;2023-04-05T12:16:07;99917.63;;;20.00;38.02
26487;BME280;14425;56.136;40.360;2023-04-05T12:18:36;99922.03;;;20.69;37.58
26487;BME280;14425;56.136;40.360;2023-04-05T12:21:04;99922.84;;;19.84;38.33
26487;BME280;14425;56.136;40.360;2023-04-05T12:23:30;99923.75;;;20.29;38.94
26487;BME280;14425;56.136;40.360;2023-04-05T12:25:56;99922.84;;;20.00;38.09
26487;BME280;14425;56.136;40.360;2023-04-05T12:28:22;99919.34;;;19.90;38.91
26487;BME280;14425;56.136;40.360;2023-04-05T12:30:56;99919.38;;;20.27;38.07
26487;BME280;14425;56.136;40.360;2023-04-05T12:33:30;99922.84;;;20.12;38.37
26487;BME280;14425;56.136;40.360;2023-04-05T12:35:58;99921.13;;;20.14;37.75
26487;BME280;14425;56.136;40.360;2023-04-05T12:38:27;99915.84;;;20.88;36.39
26487;BME280;14425;56.136;40.360;2023-04-05T12:40:53;99914.84;;;21.34;36.23
26487;BME280;14425;56.136;40.360;2023-04-05T12:43:19;99914.75;;;21.60;36.06
26487;BME280;14425;56.136;40.360;2023-04-05T12:45:45;99900.69;;;21.73;35.71
26487;BME280;14425;56.136;40.360;2023-04-05T12:48:12;99920.25;;;20.63;36.00
26487;BME280;14425;56.136;40.360;2023-04-05T12:50:45;99918.38;;;19.63;38.55
26487;BME280;14425;56.136;40.360;2023-04-05T12:53:19;99925.16;;;19.12;39.04
26487;BME280;14425;56.136;40.360;2023-04-05T12:55:52;99920.25;;;18.32;40.34
26487;BME280;14425;56.136;40.360;2023-04-05T12:58:19;99912.28;;;19.69;38.94
26487;BME280;14425;56.136;40.360;2023-04-05T13:00:45;99911.50;;;20.05;39.10
26487;BME280;14425;56.136;40.360;2023-04-05T13:03:19;99911.53;;;20.44;37.94
26487;BME280;14425;56.136;40.360;2023-04-05T13:05:46;99915.88;;;20.63;37.53
26487;BME280;14425;56.136;40.360;2023-04-05T13:08:14;99915.03;;;20.10;37.47
26487;BME280;14425;56.136;40.360;2023-04-05T13:10:40;99914.13;;;19.82;38.37
26487;BME280;14425;56.136;40.360;2023-04-05T13:13:05;99915.03;;;20.30;37.99
26487;BME280;14425;56.136;40.360;2023-04-05T13:15:31;99913.25;;;19.86;37.06
26487;BME280;14425;56.136;40.360;2023-04-05T13:17:57;99911.34;;;19.47;39.96